Time;durP1;ratioP1;P1;durP2;ratioP2;P2;SDS_P1;SDS_P2;PMS_P1;PMS_P2;Temp;Humidity;BMP_temperature;BMP_pressure;BME280_temperature;BME280_humidity;BME280_pressure;Samples;Min_cycle;Max_cycle;Signal;HPM_P1;HPM_P2
2021/03/17 00:01:04;;;;;;;21.53;15.90;;;;;;;4.08;87.93;93651.56;5055552;28;20460;-76
2021/03/17 00:03:31;;;;;;;19.13;15.47;;;;;;;4.08;88.62;93651.56;5055088;28;20441;-76
2021/03/17 00:05:58;;;;;;;23.90;15.67;;;;;;;4.06;87.71;93653.47;5055291;28;20465;-76
2021/03/17 00:08:25;;;;;;;24.43;15.60;;;;;;;4.08;87.81;93648.97;5056226;28;20480;-76
2021/03/17 00:10:54;;;;;;;19.70;16.50;;;;;;;4.04;88.08;93642.34;5055543;28;20445;-76
2021/03/17 00:13:23;;;;;;;24.37;16.60;;;;;;;4.14;88.23;93651.06;5054953;28;20440;-76
2021/03/17 00:15:50;;;;;;;22.87;16.07;;;;;;;4.11;88.16;93651.31;5055453;28;20457;-76
2021/03/17 00:18:17;;;;;;;20.30;15.57;;;;;;;4.16;87.94;93651.78;5055556;28;20429;-76
2021/03/17 00:20:43;;;;;;;19.47;15.57;;;;;;;4.18;88.68;93644.69;5054796;28;20438;-76
2021/03/17 00:23:11;;;;;;;20.43;13.33;;;;;;;4.14;88.64;93645.06;5054795;28;20430;-76
2021/03/17 00:25:39;;;;;;;21.47;15.20;;;;;;;4.15;88.57;93644.94;5054958;28;20503;-76
2021/03/17 00:28:06;;;;;;;17.37;12.33;;;;;;;4.09;88.35;93610.88;5054566;28;20815;-77
2021/03/17 00:30:34;;;;;;;19.40;14.07;;;;;;;4.10;88.76;93639.28;5055489;28;20905;-76
2021/03/17 00:33:01;;;;;;;31.87;15.70;;;;;;;4.10;89.33;93634.09;5054928;28;20429;-76
2021/03/17 00:35:28;;;;;;;19.73;14.53;;;;;;;4.11;89.71;93640.94;5054963;28;20437;-76
2021/03/17 00:37:55;;;;;;;19.13;14.20;;;;;;;4.14;89.57;93635.50;5020130;28;20495;-76
2021/03/17 00:40:23;;;;;;;20.80;15.37;;;;;;;4.09;89.58;93627.25;5054795;28;20437;-76
2021/03/17 00:42:49;;;;;;;24.30;15.77;;;;;;;4.06;89.10;93643.09;5054768;28;20483;-76
2021/03/17 00:45:16;;;;;;;19.57;14.93;;;;;;;4.07;89.64;93623.97;5054300;28;20444;-76
2021/03/17 00:47:42;;;;;;;19.43;14.60;;;;;;;4.02;89.34;93624.31;5054676;28;21221;-76
2021/03/17 00:50:11;;;;;;;20.90;15.40;;;;;;;4.07;89.64;93628.34;5054072;28;20441;-76
2021/03/17 00:52:37;;;;;;;16.60;14.13;;;;;;;4.06;90.17;93619.72;5054522;28;20939;-77
2021/03/17 00:55:06;;;;;;;15.00;12.40;;;;;;;4.08;89.39;93625.63;5055044;28;20483;-77
2021/03/17 00:57:33;;;;;;;19.43;12.90;;;;;;;4.03;89.25;93620.75;5019470;28;20851;-77
2021/03/17 00:59:59;;;;;;;17.63;13.90;;;;;;;4.02;89.66;93629.50;5054712;28;20429;-76
2021/03/17 01:02:26;;;;;;;19.00;13.60;;;;;;;4.00;89.15;93623.59;5053957;28;20937;-76
2021/03/17 01:04:52;;;;;;;16.27;12.50;;;;;;;3.98;89.98;93619.50;5053900;28;20430;-77
2021/03/17 01:07:20;;;;;;;15.97;12.20;;;;;;;3.96;89.63;93622.22;5054467;28;20468;-77
2021/03/17 01:09:47;;;;;;;18.50;13.60;;;;;;;3.96;89.46;93617.00;5020116;28;20499;-77
2021/03/17 01:12:13;;;;;;;16.07;12.47;;;;;;;3.95;89.33;93624.94;5054507;28;20507;-77
2021/03/17 01:14:41;;;;;;;18.50;12.97;;;;;;;3.94;88.73;93629.28;5053766;28;20449;-77
2021/03/17 01:17:07;;;;;;;16.03;13.57;;;;;;;3.94;89.63;93618.09;5054026;28;20440;-77
2021/03/17 01:19:35;;;;;;;14.43;11.70;;;;;;;3.96;88.98;93611.00;5054469;28;20469;-77
2021/03/17 01:22:02;;;;;;;15.80;12.07;;;;;;;3.87;87.02;93609.97;5054875;28;20429;-77
2021/03/17 01:24:28;;;;;;;13.27;10.10;;;;;;;4.01;88.62;93614.88;5019116;28;20437;-77
2021/03/17 01:26:55;;;;;;;16.70;11.97;;;;;;;3.99;88.16;93615.94;5053600;28;20980;-77
2021/03/17 01:29:21;;;;;;;16.97;11.43;;;;;;;4.04;87.62;93613.81;5053788;28;20786;-76
2021/03/17 01:31:49;;;;;;;16.00;11.10;;;;;;;4.03;86.51;93610.38;5054366;28;20434;-76
2021/03/17 01:34:16;;;;;;;15.90;11.33;;;;;;;4.04;85.45;93608.63;5054055;28;20540;-76
2021/03/17 01:36:43;;;;;;;14.77;10.80;;;;;;;3.97;85.06;93607.47;5053727;28;20441;-76
2021/03/17 01:39:09;;;;;;;15.67;12.10;;;;;;;3.97;85.50;93618.66;5053442;28;20430;-76
2021/03/17 01:41:36;;;;;;;14.70;11.23;;;;;;;4.01;85.40;93614.88;5053559;28;20444;-77
2021/03/17 01:44:03;;;;;;;19.23;11.80;;;;;;;4.03;84.36;93612.16;5053338;28;20452;-76
2021/03/17 01:46:29;;;;;;;13.03;11.47;;;;;;;4.02;84.29;93615.69;5053180;28;20481;-76
2021/03/17 01:48:57;;;;;;;14.87;11.57;;;;;;;4.07;83.42;93613.59;5054455;28;20437;-76
2021/03/17 01:51:23;;;;;;;17.60;11.67;;;;;;;4.04;83.41;93613.81;5053567;28;20438;-77
2021/03/17 01:53:50;;;;;;;11.73;9.57;;;;;;;4.06;82.95;93596.38;5053477;28;20798;-77
2021/03/17 01:56:17;;;;;;;12.60;10.03;;;;;;;4.03;83.61;93622.53;5053057;28;20445;-76
2021/03/17 01:58:43;;;;;;;21.30;11.50;;;;;;;4.05;83.13;93610.28;5018087;28;20445;-76
2021/03/17 02:01:10;;;;;;;16.27;11.47;;;;;;;4.14;83.85;93600.94;5053415;28;20879;-76
2021/03/17 02:03:36;;;;;;;16.47;11.40;;;;;;;4.15;83.24;93621.56;5017864;28;20510;-76
2021/03/17 02:06:05;;;;;;;17.80;11.03;;;;;;;4.15;81.74;93624.16;5052762;28;20481;-76
2021/03/17 02:08:35;;;;;;;14.67;10.17;;;;;;;4.09;81.91;93622.06;5052827;28;20449;-76
2021/03/17 02:11:02;;;;;;;15.10;10.27;;;;;;;4.07;82.17;93621.38;5052792;28;20446;-77
2021/03/17 02:14:03;;;;;;;15.97;10.73;;;;;;;4.04;82.70;93616.41;5052478;28;20960;-77
2021/03/17 02:16:33;;;;;;;12.03;9.60;;;;;;;4.02;82.40;93620.88;4991508;28;20514;-77
2021/03/17 02:19:29;;;;;;;8.77;7.87;;;;;;;3.97;83.12;93625.63;4991814;28;20498;-76
2021/03/17 02:22:26;;;;;;;9.03;8.13;;;;;;;3.93;83.08;93630.25;4991545;28;20972;-77
2021/03/17 02:25:00;;;;;;;16.07;10.53;;;;;;;3.95;83.64;93624.94;4988356;28;20458;-76
2021/03/17 02:28:08;;;;;;;13.50;9.63;;;;;;;3.88;82.05;93621.19;4991581;28;20890;-81
2021/03/17 02:31:07;;;;;;;12.17;9.60;;;;;;;3.91;83.16;93634.72;4933723;29;20455;-76
2021/03/17 02:33:40;;;;;;;13.60;10.23;;;;;;;3.88;82.86;93623.78;4934387;29;20478;-76
2021/03/17 02:36:12;;;;;;;11.37;9.20;;;;;;;3.93;82.85;93632.00;4933661;29;20455;-76
2021/03/17 02:38:46;;;;;;;14.23;10.73;;;;;;;3.87;83.19;93625.53;4902783;29;20443;-76
2021/03/17 02:41:18;;;;;;;12.77;9.80;;;;;;;3.85;83.50;93644.78;4933865;29;20442;-76
2021/03/17 02:43:47;;;;;;;15.20;9.37;;;;;;;3.90;83.41;93637.44;4933626;29;20469;-76
2021/03/17 02:46:16;;;;;;;12.33;9.83;;;;;;;3.87;83.21;93645.47;4933558;29;20537;-76
2021/03/17 02:48:46;;;;;;;12.17;10.13;;;;;;;3.90;82.71;93643.47;4933745;29;20935;-77
2021/03/17 02:51:31;;;;;;;12.67;9.53;;;;;;;3.86;81.84;93630.84;4995514;28;20847;-76
2021/03/17 02:54:01;;;;;;;11.10;9.23;;;;;;;3.92;82.44;93640.75;5011277;28;20443;-76
2021/03/17 02:56:28;;;;;;;11.37;9.80;;;;;;;3.87;81.98;93637.69;5011145;28;20842;-76
2021/03/17 02:58:55;;;;;;;11.50;10.30;;;;;;;3.85;81.15;93631.81;5010907;28;20443;-77
2021/03/17 03:01:22;;;;;;;15.20;10.43;;;;;;;3.85;81.57;93631.81;4962504;28;20939;-76
2021/03/17 03:03:51;;;;;;;12.70;9.03;;;;;;;3.85;80.99;93639.59;5010807;28;20434;-77
2021/03/17 03:06:17;;;;;;;18.03;10.80;;;;;;;3.85;81.60;93639.59;5036291;28;20514;-76
2021/03/17 03:08:45;;;;;;;9.77;8.07;;;;;;;3.87;80.37;93642.88;5052852;28;20529;-76
2021/03/17 03:11:18;;;;;;;14.50;10.70;;;;;;;3.91;81.60;93639.09;5034566;28;20460;-76
2021/03/17 03:13:45;;;;;;;15.33;10.60;;;;;;;3.90;81.00;93638.28;5054969;28;20531;-76
2021/03/17 03:16:12;;;;;;;13.30;9.67;;;;;;;3.89;80.35;93635.78;5056760;28;20594;-76
2021/03/17 03:18:41;;;;;;;16.20;10.40;;;;;;;3.90;81.11;93642.63;5021435;28;20487;-76
2021/03/17 03:21:11;;;;;;;11.07;8.30;;;;;;;3.91;80.21;93644.28;5055883;28;20437;-76
2021/03/17 03:23:38;;;;;;;12.73;10.27;;;;;;;3.86;79.88;93626.47;5037698;28;21178;-76
2021/03/17 03:29:27;;;;;;;15.40;11.37;;;;;;;3.88;80.22;93642.75;5054750;28;20463;-76
2021/03/17 03:31:53;;;;;;;11.37;9.40;;;;;;;3.87;80.33;93648.06;5055829;28;20920;-76
2021/03/17 03:34:20;;;;;;;15.20;11.73;;;;;;;3.89;80.73;93648.78;5055993;28;20433;-76
2021/03/17 03:36:47;;;;;;;17.33;11.53;;;;;;;3.93;79.72;93632.84;5055725;28;20775;-76
2021/03/17 03:39:14;;;;;;;11.83;10.20;;;;;;;3.90;79.76;93640.88;5021018;28;20433;-77
2021/03/17 03:41:41;;;;;;;18.17;10.70;;;;;;;3.90;79.24;93621.88;5056221;28;20507;-77
2021/03/17 03:44:07;;;;;;;11.23;8.83;;;;;;;3.81;79.23;93640.78;5020982;28;20438;-76
2021/03/17 03:46:34;;;;;;;11.27;9.53;;;;;;;3.78;79.73;93643.63;5056151;28;20469;-76
2021/03/17 03:49:02;;;;;;;15.90;10.77;;;;;;;3.76;79.39;93641.13;5055725;28;20446;-76
2021/03/17 03:51:30;;;;;;;13.73;10.23;;;;;;;3.77;80.36;93644.56;5055653;28;20429;-76
2021/03/17 03:54:12;;;;;;;14.80;10.40;;;;;;;3.75;80.03;93636.88;5037294;28;20984;-76
2021/03/17 03:56:44;;;;;;;13.80;9.93;;;;;;;3.74;79.06;93648.19;5055580;28;20444;-76
2021/03/17 04:12:40;;;;;;;11.70;9.57;;;;;;;3.67;79.17;93647.03;5055115;28;20532;-76
2021/03/17 04:15:09;;;;;;;12.67;9.90;;;;;;;3.73;79.42;93651.72;5055311;28;20457;-76
2021/03/17 04:17:40;;;;;;;11.60;8.73;;;;;;;3.74;78.30;93640.41;5037088;28;20445;-76
2021/03/17 04:20:10;;;;;;;11.37;9.80;;;;;;;3.73;79.17;93652.56;5055611;28;20960;-76
2021/03/17 04:22:38;;;;;;;11.77;9.77;;;;;;;3.77;78.38;93654.94;5055109;28;20491;-76
2021/03/17 04:25:07;;;;;;;12.00;10.40;;;;;;;3.84;78.62;93653.50;5037033;28;20792;-76
2021/03/17 04:27:35;;;;;;;10.40;9.30;;;;;;;3.87;77.93;93654.09;5055210;28;20540;-76
2021/03/17 04:30:06;;;;;;;12.03;10.83;;;;;;;3.88;77.88;93652.31;5055052;28;20429;-76
2021/03/17 04:32:35;;;;;;;15.20;10.73;;;;;;;3.83;77.31;93641.47;5036420;28;20453;-76
2021/03/17 04:35:02;;;;;;;14.67;10.50;;;;;;;3.85;77.78;93645.59;5054481;28;20933;-76
2021/03/17 04:37:30;;;;;;;14.90;11.07;;;;;;;3.88;77.80;93652.31;5055040;28;20441;-76
2021/03/17 04:39:58;;;;;;;11.83;10.30;;;;;;;3.83;76.95;93634.50;5019834;28;20441;-77
2021/03/17 04:42:25;;;;;;;11.60;8.83;;;;;;;3.79;77.06;93648.69;5054797;28;20503;-76
2021/03/17 04:44:52;;;;;;;13.17;11.37;;;;;;;3.82;77.50;93650.19;5054910;28;20437;-76
2021/03/17 04:47:21;;;;;;;15.13;12.00;;;;;;;3.85;77.69;93639.59;5054525;28;20523;-76
2021/03/17 04:49:48;;;;;;;16.67;11.13;;;;;;;3.88;76.23;93647.94;5054686;28;20430;-78
2021/03/17 04:55:37;;;;;;;10.63;9.40;;;;;;;3.79;76.57;93659.06;5054057;28;20478;-76
2021/03/17 04:58:04;;;;;;;12.90;11.37;;;;;;;3.84;76.17;93675.09;5054039;28;20437;-76
2021/03/17 05:00:31;;;;;;;17.43;12.17;;;;;;;3.83;76.04;93663.06;5054758;28;20457;-75
2021/03/17 05:03:00;;;;;;;16.17;12.57;;;;;;;3.82;76.48;93665.78;5054204;28;20498;-76
2021/03/17 05:05:29;;;;;;;14.13;11.50;;;;;;;3.83;76.38;93668.25;5054349;28;20769;-76
2021/03/17 05:07:57;;;;;;;24.97;15.83;;;;;;;3.81;76.42;93666.72;5054211;28;20473;-75
2021/03/17 05:10:26;;;;;;;15.23;10.77;;;;;;;3.76;75.85;93650.66;5054221;28;20444;-76
2021/03/17 05:12:53;;;;;;;15.33;11.37;;;;;;;3.76;76.68;93656.69;5054835;28;20452;-79
2021/03/17 05:15:21;;;;;;;15.23;10.60;;;;;;;3.78;76.60;93656.59;5054144;28;20469;-76
2021/03/17 05:17:51;;;;;;;16.07;13.30;;;;;;;3.80;75.96;93657.28;5054144;28;20797;-76
2021/03/17 05:20:22;;;;;;;22.70;14.00;;;;;;;3.80;76.80;93667.66;5054330;28;20515;-80
2021/03/17 05:22:50;;;;;;;14.67;10.83;;;;;;;3.78;75.51;93660.00;5053690;28;20441;-82
2021/03/17 05:25:19;;;;;;;17.40;11.53;;;;;;;3.84;74.92;93649.13;5053618;28;21124;-78
2021/03/17 05:27:50;;;;;;;18.07;13.80;;;;;;;3.78;75.57;93664.38;5053513;28;20479;-76
2021/03/17 05:30:17;;;;;;;20.07;13.40;;;;;;;3.75;76.26;93662.81;5054656;28;20449;-75
2021/03/17 05:32:46;;;;;;;16.80;12.13;;;;;;;3.78;75.60;93661.78;5054239;28;20429;-75
2021/03/17 05:35:14;;;;;;;17.47;12.33;;;;;;;3.80;74.38;93670.25;5053406;28;20840;-76
2021/03/17 05:37:41;;;;;;;13.47;10.93;;;;;;;3.80;74.71;93667.66;5054265;28;20440;-76
2021/03/17 05:40:10;;;;;;;15.43;11.70;;;;;;;3.77;74.99;93678.28;5053643;28;20803;-76
2021/03/17 05:42:39;;;;;;;14.50;11.27;;;;;;;3.72;74.41;93656.09;5053934;28;20430;-76
2021/03/17 05:45:09;;;;;;;16.17;11.20;;;;;;;3.70;75.26;93672.72;5053383;28;20433;-76
2021/03/17 05:47:37;;;;;;;16.57;11.13;;;;;;;3.72;75.15;93663.06;5051977;28;20479;-76
2021/03/17 05:50:07;;;;;;;19.47;12.47;;;;;;;3.73;75.07;93670.72;5053842;28;20503;-76
2021/03/17 05:52:34;;;;;;;14.90;10.53;;;;;;;3.77;75.36;93673.09;5019197;28;20437;-76
2021/03/17 05:55:02;;;;;;;12.53;10.03;;;;;;;3.74;75.39;93669.75;5053131;28;20483;-76
2021/03/17 05:57:29;;;;;;;13.00;10.73;;;;;;;3.74;74.32;93677.53;5053278;28;20429;-76
2021/03/17 05:59:55;;;;;;;16.53;10.87;;;;;;;3.78;75.51;93678.16;5053196;28;20441;-77
2021/03/17 06:02:22;;;;;;;15.27;11.50;;;;;;;3.80;74.76;93688.41;5053407;28;20441;-76
2021/03/17 06:04:52;;;;;;;14.03;11.40;;;;;;;3.83;74.85;93683.81;5053638;28;20433;-76
2021/03/17 06:07:23;;;;;;;15.70;12.40;;;;;;;3.87;75.45;93682.63;5052932;28;20469;-78
2021/03/17 06:09:52;;;;;;;16.80;11.37;;;;;;;3.93;74.89;93663.16;5053321;28;20452;-78
2021/03/17 06:12:22;;;;;;;16.60;10.13;;;;;;;3.95;74.52;93689.81;5053409;28;20438;-77
2021/03/17 06:14:50;;;;;;;16.30;11.73;;;;;;;3.99;75.13;93694.63;5053034;28;20452;-78
2021/03/17 06:17:22;;;;;;;18.13;13.10;;;;;;;4.07;75.85;93682.84;5052941;28;20460;-76
2021/03/17 06:19:55;;;;;;;17.53;12.27;;;;;;;4.10;73.90;93669.63;5053059;28;20473;-76
2021/03/17 06:22:21;;;;;;;19.53;12.93;;;;;;;4.11;75.39;93697.22;5052969;28;20449;-79
2021/03/17 06:24:48;;;;;;;16.70;13.00;;;;;;;4.11;73.96;93694.63;5052576;28;20449;-75
2021/03/17 06:27:15;;;;;;;15.00;11.47;;;;;;;4.13;74.85;93710.91;5052293;28;20481;-76
2021/03/17 06:29:42;;;;;;;23.07;12.57;;;;;;;4.28;83.59;93700.13;5052364;28;20963;-77
2021/03/17 06:32:10;;;;;;;15.37;11.93;;;;;;;4.29;75.81;93706.13;5052291;28;20499;-76
2021/03/17 06:34:45;;;;;;;18.43;12.17;;;;;;;4.22;73.97;93698.00;5052657;28;20525;-77
2021/03/17 06:37:12;;;;;;;18.50;13.70;;;;;;;4.29;76.10;93700.94;5053108;28;20444;-77
2021/03/17 06:39:38;;;;;;;22.37;15.10;;;;;;;4.30;76.38;93707.78;5053031;28;20445;-77
2021/03/17 06:42:06;;;;;;;23.07;13.07;;;;;;;4.33;75.62;93702.34;5053612;28;20448;-77
2021/03/17 06:44:32;;;;;;;11.90;10.40;;;;;;;4.38;75.41;93715.00;5018278;28;20437;-78
2021/03/17 06:47:19;;;;;;;18.33;12.30;;;;;;;4.37;75.11;93708.97;5052673;28;20469;-77
2021/03/17 06:49:46;;;;;;;14.90;9.83;;;;;;;4.55;78.77;93701.47;5056804;28;20502;-78
2021/03/17 06:52:36;;;;;;;18.40;12.87;;;;;;;4.60;75.74;93712.31;5056854;28;20421;-77
2021/03/17 06:55:21;;;;;;;16.53;11.57;;;;;;;4.53;74.45;93692.97;5057197;28;21058;-86
2021/03/17 06:57:49;;;;;;;16.17;12.17;;;;;;;4.51;74.31;93700.06;5059857;28;20449;-92
2021/03/17 07:00:21;;;;;;;15.47;11.70;;;;;;;4.49;73.01;93707.16;5060138;28;20433;-89
2021/03/17 07:02:53;;;;;;;12.03;10.30;;;;;;;4.58;75.47;93707.22;5059526;28;20449;-87
2021/03/17 07:05:20;;;;;;;19.70;11.17;;;;;;;4.60;72.71;93713.13;5058692;28;20437;-85
2021/03/17 07:07:48;;;;;;;14.23;10.40;;;;;;;4.54;72.55;93711.03;5057035;28;20527;-86
2021/03/17 07:10:25;;;;;;;13.20;9.77;;;;;;;4.59;73.19;93692.47;5059338;28;20848;-89
2021/03/17 07:16:34;;;;;;;14.50;10.93;;;;;;;4.67;72.87;93713.47;5062084;28;20448;-90
2021/03/17 07:19:03;;;;;;;15.97;11.70;;;;;;;4.75;74.35;93708.47;5059201;28;20468;-89
2021/03/17 07:21:31;;;;;;;20.30;13.57;;;;;;;4.88;74.78;93706.50;5058032;28;20453;-86
2021/03/17 07:23:57;;;;;;;12.17;9.70;;;;;;;4.87;74.45;93709.25;5057956;28;20479;-86
2021/03/17 07:26:25;;;;;;;14.30;11.37;;;;;;;4.78;72.07;93703.03;5060445;28;20823;-88
2021/03/17 07:29:04;;;;;;;14.37;10.90;;;;;;;4.83;73.17;93706.06;5058323;28;20501;-88
2021/03/17 07:31:33;;;;;;;15.27;10.73;;;;;;;4.91;73.70;93697.63;5060994;28;20445;-88
2021/03/17 07:34:11;;;;;;;13.87;10.70;;;;;;;4.78;72.43;93705.63;5062599;28;20429;-88
2021/03/17 07:36:41;;;;;;;20.60;12.77;;;;;;;4.79;72.65;93703.84;5063117;28;20438;-89
2021/03/17 07:39:12;;;;;;;13.43;10.97;;;;;;;4.71;73.75;93717.47;5062161;28;20453;-88
2021/03/17 07:41:39;;;;;;;15.07;9.63;;;;;;;4.65;72.62;93712.78;5063486;28;20452;-89
2021/03/17 07:44:08;;;;;;;12.97;10.33;;;;;;;4.70;74.24;93715.00;5064612;28;20502;-86
2021/03/17 07:46:36;;;;;;;19.20;13.60;;;;;;;4.65;72.53;93708.41;5065138;28;20492;-88
2021/03/17 07:49:04;;;;;;;13.80;11.63;;;;;;;4.60;74.22;93717.50;5063645;28;20438;-89
2021/03/17 07:51:35;;;;;;;14.10;10.80;;;;;;;4.61;74.53;93704.38;5048088;28;20457;-89
2021/03/17 07:54:03;;;;;;;15.93;11.13;;;;;;;4.73;74.69;93715.56;5039070;28;20454;-89
2021/03/17 07:56:30;;;;;;;13.13;9.13;;;;;;;4.82;75.36;93707.03;5042034;28;20513;-87
2021/03/17 07:58:57;;;;;;;16.47;12.70;;;;;;;5.01;79.75;93708.94;5058197;28;20937;-87
2021/03/17 08:01:24;;;;;;;14.67;10.77;;;;;;;4.97;73.62;93723.97;5059566;28;20789;-87
2021/03/17 08:03:51;;;;;;;23.77;14.73;;;;;;;4.99;74.32;93729.06;5059574;28;20544;-87
2021/03/17 08:06:21;;;;;;;21.23;11.90;;;;;;;4.88;73.03;93727.31;5060424;28;20481;-87
2021/03/17 08:08:49;;;;;;;14.30;9.33;;;;;;;4.87;76.53;93699.66;5025712;28;20454;-87
2021/03/17 08:11:18;;;;;;;15.20;10.17;;;;;;;4.83;73.80;93726.03;5060108;28;20510;-87
2021/03/17 08:13:47;;;;;;;17.53;9.43;;;;;;;4.79;74.59;93725.47;5060694;28;20433;-86
2021/03/17 08:16:18;;;;;;;19.80;12.90;;;;;;;4.78;73.32;93730.78;5061982;28;20699;-87
2021/03/17 08:18:48;;;;;;;15.97;11.67;;;;;;;4.82;74.89;93725.22;5054118;28;20490;-87
2021/03/17 08:21:15;;;;;;;12.30;10.37;;;;;;;4.90;74.49;93715.00;5049063;28;20446;-87
2021/03/17 08:23:44;;;;;;;15.17;12.73;;;;;;;5.01;75.15;93732.34;5039736;28;20454;-87
2021/03/17 08:26:16;;;;;;;12.93;9.00;;;;;;;5.09;74.64;93731.72;5055597;28;20439;-88
2021/03/17 08:29:02;;;;;;;13.63;10.57;;;;;;;5.14;76.57;93726.97;5000143;28;20487;-87
2021/03/17 08:31:50;;;;;;;19.47;13.50;;;;;;;5.04;80.46;93721.69;5006780;28;20435;-88
2021/03/17 08:34:24;;;;;;;18.27;11.20;;;;;;;4.94;75.60;93729.44;5020365;28;20447;-88
2021/03/17 08:36:52;;;;;;;11.37;7.77;;;;;;;4.91;76.66;93727.06;5020142;28;20454;-88
2021/03/17 08:39:47;;;;;;;14.97;10.33;;;;;;;4.88;75.08;93721.28;5016521;28;20463;-89
2021/03/17 08:42:26;;;;;;;11.57;8.97;;;;;;;4.93;76.16;93714.78;4966922;28;20478;-87
2021/03/17 08:44:54;;;;;;;10.63;8.90;;;;;;;4.93;76.72;93732.97;5015493;28;20868;-88
2021/03/17 08:47:24;;;;;;;9.33;8.23;;;;;;;4.94;75.76;93729.44;5027732;28;20474;-88
2021/03/17 08:49:52;;;;;;;12.57;9.17;;;;;;;5.01;76.12;93727.16;5037276;28;20442;-88
2021/03/17 08:52:21;;;;;;;13.17;9.17;;;;;;;5.10;76.02;93738.56;5036885;28;20453;-87
2021/03/17 08:55:10;;;;;;;12.23;9.10;;;;;;;5.11;76.01;93735.00;5036806;28;20454;-89
2021/03/17 08:58:03;;;;;;;14.63;9.37;;;;;;;5.02;76.65;93733.19;5038952;28;20453;-87
2021/03/17 09:00:47;;;;;;;10.50;9.10;;;;;;;4.94;78.01;93733.81;5037394;28;20454;-89
2021/03/17 09:03:44;;;;;;;12.90;8.73;;;;;;;4.81;78.17;93748.72;5038931;28;20454;-88
2021/03/17 09:06:23;;;;;;;12.97;8.77;;;;;;;4.70;77.77;93726.22;5037379;28;20863;-88
2021/03/17 09:09:08;;;;;;;12.87;9.50;;;;;;;4.73;79.91;93731.16;5037048;28;20442;-87
2021/03/17 09:11:58;;;;;;;11.60;9.33;;;;;;;4.69;81.37;93741.94;5038808;28;20446;-87
2021/03/17 09:14:33;;;;;;;12.00;7.40;;;;;;;4.55;79.00;93733.47;5037989;28;20438;-88
2021/03/17 09:17:21;;;;;;;16.27;8.37;;;;;;;4.48;80.18;93732.31;5037821;28;20451;-88
2021/03/17 09:20:04;;;;;;;13.47;9.03;;;;;;;4.36;79.77;93735.88;5035906;28;20486;-87
2021/03/17 09:22:36;;;;;;;20.73;9.77;;;;;;;4.38;80.49;93731.41;5036142;28;20785;-88
2021/03/17 09:25:12;;;;;;;9.30;7.73;;;;;;;4.53;81.72;93737.13;5035218;28;20529;-88
2021/03/17 09:27:48;;;;;;;10.80;8.70;;;;;;;4.52;82.00;93744.09;5035581;28;20998;-87
2021/03/17 09:30:18;;;;;;;9.23;8.20;;;;;;;4.58;82.03;93742.78;5038580;28;20430;-88
2021/03/17 09:32:47;;;;;;;11.27;9.67;;;;;;;4.52;80.69;93732.88;5052939;28;20441;-87
2021/03/17 09:35:15;;;;;;;12.60;10.23;;;;;;;4.37;80.22;93734.13;5055485;28;20485;-85
2021/03/17 09:37:42;;;;;;;10.60;8.07;;;;;;;4.15;79.67;93738.38;5055437;28;20442;-87
2021/03/17 09:40:15;;;;;;;11.10;8.40;;;;;;;4.20;82.43;93736.25;5055416;28;20436;-86
2021/03/17 09:46:36;;;;;;;13.33;10.07;;;;;;;4.38;82.98;93746.97;5056576;28;20392;-87
2021/03/17 09:49:05;;;;;;;10.67;8.60;;;;;;;4.39;84.77;93746.03;5054716;28;20457;-85
2021/03/17 09:51:34;;;;;;;14.00;10.73;;;;;;;4.40;81.98;93757.25;5053952;28;20449;-86
2021/03/17 09:54:04;;;;;;;12.67;9.30;;;;;;;4.43;82.83;93750.03;5054318;28;20444;-87
2021/03/17 09:56:49;;;;;;;13.30;10.47;;;;;;;4.33;82.94;93751.69;5055025;28;21507;-84
2021/03/17 09:59:48;;;;;;;12.07;10.00;;;;;;;4.41;85.73;93761.50;5054819;28;20441;-84
2021/03/17 10:02:19;;;;;;;13.57;10.03;;;;;;;4.33;83.12;93749.91;4993054;28;20444;-85
2021/03/17 10:04:48;;;;;;;17.50;11.60;;;;;;;4.38;84.47;93744.38;4992594;28;20571;-85
2021/03/17 10:07:16;;;;;;;11.07;8.57;;;;;;;4.28;84.67;93744.25;4992118;28;21310;-84
2021/03/17 10:09:43;;;;;;;11.63;8.87;;;;;;;4.42;87.24;93755.34;4991941;28;20451;-85
2021/03/17 10:12:12;;;;;;;18.80;12.80;;;;;;;4.38;84.42;93751.34;4991851;28;20467;-84
2021/03/17 10:14:43;;;;;;;14.77;10.53;;;;;;;4.35;83.98;93760.22;4992743;28;20454;-85
2021/03/17 10:17:10;;;;;;;16.73;10.47;;;;;;;4.32;85.52;93758.66;4992059;28;20420;-84
2021/03/17 10:19:38;;;;;;;16.63;11.90;;;;;;;4.42;85.53;93768.34;4991922;28;20480;-84
2021/03/17 10:22:05;;;;;;;16.50;11.37;;;;;;;4.45;85.63;93761.13;4993314;28;20845;-85
2021/03/17 10:24:37;;;;;;;22.37;9.97;;;;;;;4.24;84.10;93755.84;4995994;28;20503;-84
2021/03/17 10:27:05;;;;;;;12.43;10.63;;;;;;;4.27;85.74;93760.78;4995809;28;20495;-84
2021/03/17 10:29:31;;;;;;;20.93;13.50;;;;;;;4.41;86.75;93762.31;4996161;28;20511;-84
2021/03/17 10:31:58;;;;;;;16.80;11.87;;;;;;;4.38;83.97;93761.72;4986152;28;20453;-84
2021/03/17 10:34:27;;;;;;;11.03;8.80;;;;;;;4.28;84.85;93751.22;4976644;28;20453;-84
2021/03/17 10:36:56;;;;;;;14.97;11.00;;;;;;;4.42;88.00;93774.34;4976392;28;20437;-84
2021/03/17 10:39:31;;;;;;;13.10;9.57;;;;;;;4.35;86.66;93774.00;5013323;28;20445;-85
2021/03/17 10:41:59;;;;;;;14.40;11.37;;;;;;;4.33;86.26;93781.06;5037077;28;20434;-85
2021/03/17 10:44:27;;;;;;;13.57;10.00;;;;;;;4.29;87.19;93768.44;5037173;28;20438;-88
2021/03/17 10:47:08;;;;;;;13.73;10.80;;;;;;;4.45;90.17;93773.28;5037461;28;20469;-87
2021/03/17 10:49:37;;;;;;;19.83;13.50;;;;;;;4.54;88.30;93769.94;5039810;28;20934;-86
2021/03/17 10:52:05;;;;;;;12.47;10.13;;;;;;;4.69;87.17;93758.34;5037980;28;20520;-88
2021/03/17 10:54:33;;;;;;;15.83;10.43;;;;;;;4.63;86.52;93751.06;5038889;28;20457;-87
2021/03/17 10:57:01;;;;;;;13.60;9.47;;;;;;;4.63;87.42;93762.25;5038355;28;20434;-87
2021/03/17 10:59:30;;;;;;;12.77;9.77;;;;;;;4.61;86.24;93766.72;5037890;28;20778;-87
2021/03/17 11:02:22;;;;;;;14.40;10.63;;;;;;;4.71;86.69;93771.22;5019119;28;20462;-87
2021/03/17 11:05:12;;;;;;;14.90;8.67;;;;;;;4.56;86.45;93768.06;5036730;28;21016;-86
2021/03/17 11:08:12;;;;;;;12.10;10.40;;;;;;;4.63;87.18;93766.63;5036648;28;20819;-87
2021/03/17 11:10:50;;;;;;;11.17;9.97;;;;;;;4.62;89.52;93757.16;4975844;28;20441;-87
2021/03/17 11:13:30;;;;;;;14.53;12.60;;;;;;;4.61;87.39;93771.94;4975416;28;20468;-84
2021/03/17 11:15:58;;;;;;;14.33;10.33;;;;;;;4.70;88.52;93770.38;4975377;28;20455;-84
2021/03/17 11:18:26;;;;;;;21.80;12.07;;;;;;;4.64;86.07;93763.09;4983150;28;20447;-76
2021/03/17 11:20:53;;;;;;;16.80;11.30;;;;;;;4.47;85.26;93768.78;4994970;28;20440;-77
2021/03/17 11:23:22;;;;;;;20.67;11.60;;;;;;;4.26;84.19;93774.72;4994886;28;20432;-76
2021/03/17 11:25:50;;;;;;;15.60;11.13;;;;;;;4.18;85.70;93766.72;4994499;28;20482;-76
2021/03/17 11:35:20;;;;;;;19.57;13.63;;;;;;;4.30;87.41;93778.72;4994052;28;20443;-77
2021/03/17 11:37:46;;;;;;;15.80;10.73;;;;;;;4.32;87.56;93766.44;4974894;28;20931;-76
2021/03/17 11:40:14;;;;;;;14.87;11.10;;;;;;;4.40;87.54;93775.41;4975119;28;20453;-76
2021/03/17 11:42:41;;;;;;;16.17;10.57;;;;;;;4.39;87.38;93774.59;4958860;28;20465;-76
2021/03/17 11:45:08;;;;;;;14.00;10.40;;;;;;;4.35;87.23;93776.63;4975065;28;20449;-77
2021/03/17 11:47:35;;;;;;;11.20;10.00;;;;;;;4.28;88.50;93777.19;5016348;28;20486;-76
2021/03/17 11:50:01;;;;;;;15.30;11.80;;;;;;;4.28;88.93;93785.81;5035456;28;20453;-76
2021/03/17 11:52:27;;;;;;;16.90;11.70;;;;;;;4.25;89.12;93775.66;5036878;28;20945;-77
2021/03/17 11:54:54;;;;;;;14.70;11.30;;;;;;;4.32;89.23;93783.78;5021201;28;20457;-77
2021/03/17 11:57:21;;;;;;;24.60;17.57;;;;;;;4.39;89.43;93777.19;5055770;28;20454;-77
2021/03/17 11:59:47;;;;;;;23.37;13.00;;;;;;;4.47;89.48;93776.56;5055996;28;20516;-76
2021/03/17 12:02:13;;;;;;;18.53;11.90;;;;;;;4.44;88.13;93792.41;5056088;28;20475;-76
2021/03/17 12:04:40;;;;;;;18.60;12.00;;;;;;;4.40;88.12;93783.22;5055450;28;20444;-77
2021/03/17 12:07:08;;;;;;;13.80;11.03;;;;;;;4.41;89.86;93777.06;5055625;28;20477;-76
2021/03/17 12:09:34;;;;;;;17.60;13.87;;;;;;;4.48;90.06;93783.44;5055491;28;20430;-78
2021/03/17 12:12:00;;;;;;;11.70;10.50;;;;;;;4.35;90.23;93787.00;5055772;28;20783;-76
2021/03/17 12:14:28;;;;;;;14.87;11.87;;;;;;;4.20;90.40;93790.78;5054975;28;20951;-77
2021/03/17 12:16:54;;;;;;;13.50;11.77;;;;;;;4.22;90.51;93782.88;5055305;28;20871;-78